La rose des vents
Donnes mto: Semaine 26/03/07 - 01/04/07 (S 13)
Date Horaire Temp. E. Hum. E. P.atmo. Pluie Vent 1mn Direction Ensoleilleme Ev.Tr. Solaire P. de rose Temp au vent Rafales
26/03/2007 00:00 8,0 C 82 % 1012,1 hPa 0,0 l/m 18,0 km/h (3 Bft) O-SO 0,00 h 0,051 mm 0 W/m 5,0 C 5,0 C 23,7 km/h (4 Bft)
26/03/2007 01:00 8,1 C 79 % 1012,4 hPa 0,0 l/m 11,7 km/h (2 Bft) O-SO 0,00 h 0,051 mm 0 W/m 4,6 C 6,1 C 17,1 km/h (3 Bft)
26/03/2007 02:00 7,7 C 78 % 1012,8 hPa 0,0 l/m 6,2 km/h (2 Bft) O 0,00 h 0,051 mm 0 W/m 4,2 C 6,8 C 9,4 km/h (2 Bft)
26/03/2007 03:00 6,8 C 78 % 1013,0 hPa 0,0 l/m 6,0 km/h (2 Bft) O-NO 0,00 h 0,025 mm 0 W/m 3,3 C 5,9 C 8,3 km/h (2 Bft)
26/03/2007 04:00 6,3 C 77 % 1013,3 hPa 0,0 l/m 5,1 km/h (1 Bft) O-NO 0,00 h 0,025 mm 0 W/m 2,6 C 5,5 C 6,7 km/h (2 Bft)
26/03/2007 05:00 6,5 C 76 % 1013,6 hPa 0,0 l/m 3,7 km/h (1 Bft) NO 0,00 h 0,025 mm 0 W/m 2,6 C 6,2 C 5,8 km/h (2 Bft)
26/03/2007 06:00 6,7 C 76 % 1013,6 hPa 0,0 l/m 0,8 km/h (0 Bft) NO 0,00 h 0,025 mm 0 W/m 2,8 C 6,6 C 1,9 km/h (1 Bft)
26/03/2007 07:00 6,2 C 76 % 1014,1 hPa 0,0 l/m 0,7 km/h (0 Bft) NO 0,03 h 0,025 mm 14 W/m 2,3 C 6,2 C 1,8 km/h (1 Bft)
26/03/2007 08:00 7,1 C 76 % 1014,8 hPa 0,0 l/m 1,4 km/h (1 Bft) O-NO 0,22 h 0,000 mm 73 W/m 3,2 C 7,0 C 2,8 km/h (1 Bft)
26/03/2007 09:00 10,5 C 63 % 1015,2 hPa 0,0 l/m 0,6 km/h (0 Bft) NO 1,00 h 0,051 mm 326 W/m 3,7 C 10,5 C 2,0 km/h (1 Bft)
26/03/2007 10:00 12,3 C 57 % 1015,4 hPa 0,0 l/m 4,1 km/h (1 Bft) NE 1,00 h 0,152 mm 481 W/m 4,0 C 12,3 C 7,1 km/h (2 Bft)
26/03/2007 11:00 12,9 C 55 % 1015,4 hPa 0,0 l/m 5,7 km/h (1 Bft) E 0,92 h 0,254 mm 590 W/m 4,0 C 12,9 C 9,5 km/h (2 Bft)
26/03/2007 12:00 13,8 C 52 % 1015,1 hPa 0,0 l/m 7,4 km/h (2 Bft) E 1,00 h 0,330 mm 720 W/m 4,2 C 13,8 C 13,0 km/h (3 Bft)
26/03/2007 13:00 14,1 C 51 % 1014,9 hPa 0,0 l/m 9,0 km/h (2 Bft) E 1,00 h 0,406 mm 758 W/m 4,3 C 14,1 C 15,2 km/h (3 Bft)
26/03/2007 14:00 14,0 C 55 % 1014,8 hPa 0,0 l/m 9,3 km/h (2 Bft) E 1,00 h 0,432 mm 757 W/m 5,1 C 14,0 C 15,2 km/h (3 Bft)
26/03/2007 15:00 14,0 C 56 % 1014,6 hPa 0,0 l/m 8,5 km/h (2 Bft) E 0,83 h 0,432 mm 618 W/m 5,3 C 14,0 C 13,4 km/h (3 Bft)
26/03/2007 16:00 12,9 C 58 % 1014,6 hPa 0,0 l/m 7,0 km/h (2 Bft) SE 0,47 h 0,356 mm 365 W/m 4,9 C 12,9 C 11,9 km/h (2 Bft)
26/03/2007 17:00 12,3 C 62 % 1014,6 hPa 0,0 l/m 8,0 km/h (2 Bft) S 0,12 h 0,229 mm 187 W/m 5,2 C 12,3 C 11,9 km/h (2 Bft)
26/03/2007 18:00 11,5 C 66 % 1014,7 hPa 0,0 l/m 7,1 km/h (2 Bft) S-SO 0,00 h 0,127 mm 46 W/m 5,3 C 11,5 C 9,8 km/h (2 Bft)
26/03/2007 19:00 10,9 C 66 % 1014,9 hPa 0,0 l/m 6,6 km/h (2 Bft) SO 0,00 h 0,051 mm 12 W/m 4,8 C 10,9 C 8,6 km/h (2 Bft)
26/03/2007 20:00 10,4 C 71 % 1015,0 hPa 0,0 l/m 8,5 km/h (2 Bft) O-SO 0,00 h 0,025 mm 0 W/m 5,3 C 10,4 C 11,6 km/h (2 Bft)
26/03/2007 21:00 10,2 C 71 % 1015,5 hPa 0,0 l/m 6,5 km/h (2 Bft) O-NO 0,00 h 0,025 mm 0 W/m 5,2 C 10,2 C 8,6 km/h (2 Bft)
26/03/2007 22:00 9,7 C 72 % 1015,5 hPa 0,0 l/m 3,7 km/h (1 Bft) O-NO 0,00 h 0,051 mm 0 W/m 4,9 C 9,6 C 5,6 km/h (1 Bft)
26/03/2007 23:00 9,3 C 75 % 1015,6 hPa 0,0 l/m 2,1 km/h (1 Bft) NO 0,00 h 0,025 mm 0 W/m 5,0 C 9,2 C 4,1 km/h (1 Bft)
27/03/2007 00:00 9,4 C 75 % 1015,6 hPa 0,0 l/m 3,1 km/h (1 Bft) O 0,00 h 0,025 mm 0 W/m 5,1 C 9,2 C 4,8 km/h (1 Bft)
27/03/2007 01:00 9,5 C 72 % 1015,5 hPa 0,0 l/m 4,0 km/h (1 Bft) O-NO 0,00 h 0,025 mm 0 W/m 4,8 C 9,2 C 6,2 km/h (2 Bft)
27/03/2007 02:00 9,3 C 72 % 1015,5 hPa 0,0 l/m 3,5 km/h (1 Bft) O-NO 0,00 h 0,025 mm 0 W/m 4,4 C 9,2 C 6,2 km/h (2 Bft)
27/03/2007 03:00 9,1 C 71 % 1015,0 hPa 0,0 l/m 1,8 km/h (1 Bft) NO 0,00 h 0,025 mm 0 W/m 4,1 C 9,1 C 3,4 km/h (1 Bft)
27/03/2007 04:00 9,2 C 68 % 1014,8 hPa 0,0 l/m 1,7 km/h (1 Bft) NO 0,00 h 0,025 mm 0 W/m 3,7 C 9,2 C 3,3 km/h (1 Bft)
27/03/2007 05:00 9,5 C 66 % 1014,9 hPa 0,0 l/m 1,4 km/h (1 Bft) NO 0,00 h 0,025 mm 0 W/m 3,4 C 9,5 C 2,7 km/h (1 Bft)
27/03/2007 06:00 8,6 C 68 % 1014,7 hPa 0,0 l/m 5,1 km/h (1 Bft) O-NO 0,00 h 0,025 mm 0 W/m 3,0 C 8,1 C 7,8 km/h (2 Bft)
27/03/2007 07:00 7,9 C 70 % 1014,7 hPa 0,0 l/m 4,4 km/h (1 Bft) O-NO 0,00 h 0,025 mm 11 W/m 2,8 C 7,4 C 7,1 km/h (2 Bft)
27/03/2007 08:00 8,0 C 68 % 1014,7 hPa 0,0 l/m 5,3 km/h (1 Bft) NO 0,18 h 0,025 mm 85 W/m 2,6 C 7,3 C 8,5 km/h (2 Bft)
27/03/2007 09:00 10,8 C 62 % 1014,7 hPa 0,0 l/m 2,5 km/h (1 Bft) O-NO 0,65 h 0,051 mm 260 W/m 3,8 C 10,7 C 4,1 km/h (1 Bft)
27/03/2007 10:00 13,3 C 58 % 1014,6 hPa 0,0 l/m 6,4 km/h (2 Bft) S 1,00 h 0,152 mm 482 W/m 5,2 C 13,3 C 9,8 km/h (2 Bft)
27/03/2007 11:00 14,5 C 55 % 1014,5 hPa 0,0 l/m 7,7 km/h (2 Bft) S 1,00 h 0,279 mm 627 W/m 5,6 C 14,5 C 13,2 km/h (3 Bft)
27/03/2007 12:00 15,2 C 52 % 1014,6 hPa 0,0 l/m 9,5 km/h (2 Bft) S 1,00 h 0,356 mm 729 W/m 5,5 C 15,2 C 16,1 km/h (3 Bft)
27/03/2007 13:00 15,2 C 53 % 1014,6 hPa 0,0 l/m 9,7 km/h (2 Bft) E 1,00 h 0,432 mm 754 W/m 5,8 C 15,2 C 16,8 km/h (3 Bft)
27/03/2007 14:00 15,6 C 50 % 1014,4 hPa 0,0 l/m 10,8 km/h (2 Bft) E 0,98 h 0,457 mm 758 W/m 5,3 C 15,6 C 19,4 km/h (3 Bft)
27/03/2007 15:00 14,0 C 53 % 1014,4 hPa 0,0 l/m 9,1 km/h (2 Bft) E 0,13 h 0,457 mm 258 W/m 4,6 C 14,0 C 17,5 km/h (3 Bft)
27/03/2007 16:00 13,9 C 54 % 1014,3 hPa 0,0 l/m 5,7 km/h (1 Bft) E 0,08 h 0,203 mm 237 W/m 4,6 C 13,9 C 9,9 km/h (2 Bft)
27/03/2007 17:00 13,6 C 53 % 1014,1 hPa 0,0 l/m 4,6 km/h (1 Bft) S-SE 0,00 h 0,152 mm 155 W/m 4,1 C 13,6 C 8,1 km/h (2 Bft)
27/03/2007 18:00 13,3 C 57 % 1014,1 hPa 0,0 l/m 4,9 km/h (1 Bft) S-SE 0,43 h 0,102 mm 127 W/m 4,9 C 13,3 C 7,7 km/h (2 Bft)
27/03/2007 19:00 12,2 C 62 % 1014,1 hPa 0,0 l/m 7,1 km/h (2 Bft) O 0,07 h 0,102 mm 31 W/m 5,1 C 12,2 C 10,2 km/h (2 Bft)
27/03/2007 20:00 11,2 C 61 % 1014,1 hPa 0,0 l/m 10,1 km/h (2 Bft) O-NO 0,00 h 0,051 mm 0 W/m 3,9 C 11,2 C 14,1 km/h (3 Bft)
27/03/2007 21:00 9,9 C 63 % 1014,5 hPa 0,0 l/m 4,7 km/h (1 Bft) N-NO 0,00 h 0,051 mm 0 W/m 3,2 C 9,6 C 7,2 km/h (2 Bft)
27/03/2007 22:00 8,9 C 67 % 1014,9 hPa 0,0 l/m 3,4 km/h (1 Bft) N 0,00 h 0,051 mm 0 W/m 3,1 C 8,8 C 5,6 km/h (1 Bft)
27/03/2007 23:00 8,3 C 67 % 1015,0 hPa 0,0 l/m 7,9 km/h (2 Bft) O-NO 0,00 h 0,025 mm 0 W/m 2,5 C 7,1 C 10,8 km/h (2 Bft)
28/03/2007 00:00 8,5 C 65 % 1014,5 hPa 0,0 l/m 10,5 km/h (2 Bft) O-NO 0,00 h 0,051 mm 0 W/m 2,3 C 6,8 C 14,3 km/h (3 Bft)
28/03/2007 01:00 7,6 C 68 % 1014,6 hPa 0,0 l/m 4,1 km/h (1 Bft) NO 0,00 h 0,051 mm 0 W/m 2,1 C 7,2 C 7,0 km/h (2 Bft)
28/03/2007 02:00 7,8 C 67 % 1014,9 hPa 0,0 l/m 8,1 km/h (2 Bft) O-NO 0,00 h 0,025 mm 0 W/m 2,1 C 6,5 C 11,8 km/h (2 Bft)
28/03/2007 03:00 7,6 C 68 % 1014,6 hPa 0,0 l/m 9,6 km/h (2 Bft) O-NO 0,00 h 0,051 mm 0 W/m 2,0 C 5,8 C 13,8 km/h (3 Bft)
28/03/2007 04:00 7,2 C 69 % 1014,1 hPa 0,0 l/m 7,4 km/h (2 Bft) O-NO 0,00 h 0,051 mm 0 W/m 2,0 C 6,0 C 11,3 km/h (2 Bft)
28/03/2007 05:00 6,8 C 70 % 1013,9 hPa 0,0 l/m 6,4 km/h (2 Bft) O-NO 0,00 h 0,051 mm 0 W/m 1,7 C 5,8 C 9,6 km/h (2 Bft)
28/03/2007 06:00 6,7 C 71 % 1013,7 hPa 0,0 l/m 3,8 km/h (1 Bft) O-NO 0,00 h 0,025 mm 0 W/m 1,9 C 6,4 C 5,5 km/h (1 Bft)
28/03/2007 07:00 6,9 C 69 % 1013,7 hPa 0,0 l/m 4,0 km/h (1 Bft) O-NO 0,03 h 0,025 mm 17 W/m 1,6 C 6,4 C 6,6 km/h (2 Bft)
28/03/2007 08:00 7,7 C 67 % 1014,1 hPa 0,0 l/m 1,5 km/h (1 Bft) O-NO 0,18 h 0,025 mm 75 W/m 2,0 C 7,7 C 2,9 km/h (1 Bft)
28/03/2007 09:00 11,2 C 58 % 1014,1 hPa 0,0 l/m 0,4 km/h (0 Bft) E-NE 1,00 h 0,051 mm 315 W/m 3,1 C 11,2 C 1,4 km/h (1 Bft)
28/03/2007 10:00 13,2 C 49 % 1014,1 hPa 0,0 l/m 3,7 km/h (1 Bft) NE 1,00 h 0,152 mm 478 W/m 2,6 C 13,2 C 6,2 km/h (2 Bft)
28/03/2007 11:00 14,7 C 45 % 1014,0 hPa 0,0 l/m 12,4 km/h (3 Bft) E-NE 1,00 h 0,279 mm 620 W/m 2,9 C 14,7 C 17,4 km/h (3 Bft)
28/03/2007 12:00 15,1 C 48 % 1013,7 hPa 0,0 l/m 12,3 km/h (3 Bft) E 1,00 h 0,406 mm 711 W/m 4,3 C 15,1 C 20,2 km/h (4 Bft)
28/03/2007 13:00 15,8 C 47 % 1013,4 hPa 0,0 l/m 15,2 km/h (3 Bft) E 1,00 h 0,457 mm 735 W/m 4,5 C 15,8 C 22,1 km/h (4 Bft)
28/03/2007 14:00 15,7 C 48 % 1013,5 hPa 0,0 l/m 13,1 km/h (3 Bft) E 1,00 h 0,483 mm 692 W/m 4,8 C 15,7 C 20,5 km/h (4 Bft)
28/03/2007 15:00 14,8 C 57 % 1013,5 hPa 0,0 l/m 8,6 km/h (2 Bft) E 0,68 h 0,432 mm 546 W/m 6,2 C 14,8 C 15,3 km/h (3 Bft)
28/03/2007 16:00 14,3 C 55 % 1013,5 hPa 0,0 l/m 8,5 km/h (2 Bft) E-NE 0,95 h 0,330 mm 457 W/m 5,3 C 14,3 C 14,1 km/h (3 Bft)
28/03/2007 17:00 13,6 C 55 % 1013,5 hPa 0,0 l/m 5,8 km/h (2 Bft) E 0,90 h 0,279 mm 312 W/m 4,9 C 13,6 C 10,3 km/h (2 Bft)
28/03/2007 18:00 12,6 C 59 % 1013,6 hPa 0,0 l/m 5,8 km/h (2 Bft) E-NE 0,38 h 0,203 mm 131 W/m 4,7 C 12,6 C 9,1 km/h (2 Bft)
28/03/2007 19:00 11,1 C 66 % 1013,9 hPa 0,0 l/m 2,2 km/h (1 Bft) N-NE 0,08 h 0,102 mm 35 W/m 5,0 C 11,1 C 4,5 km/h (1 Bft)
28/03/2007 20:00 9,7 C 71 % 1014,2 hPa 0,0 l/m 2,5 km/h (1 Bft) N-NE 0,00 h 0,025 mm 0 W/m 4,7 C 9,7 C 4,4 km/h (1 Bft)
28/03/2007 21:00 9,0 C 70 % 1014,5 hPa 0,0 l/m 1,6 km/h (1 Bft) N 0,00 h 0,025 mm 0 W/m 3,8 C 9,0 C 3,7 km/h (1 Bft)
28/03/2007 22:00 8,4 C 66 % 1014,5 hPa 0,0 l/m 1,7 km/h (1 Bft) N 0,00 h 0,025 mm 0 W/m 2,4 C 8,4 C 4,1 km/h (1 Bft)
28/03/2007 23:00 8,7 C 61 % 1014,5 hPa 0,0 l/m 1,6 km/h (1 Bft) N 0,00 h 0,025 mm 0 W/m 1,6 C 8,7 C 4,1 km/h (1 Bft)
29/03/2007 00:00 8,9 C 59 % 1014,4 hPa 0,0 l/m 2,1 km/h (1 Bft) N 0,00 h 0,025 mm 0 W/m 1,5 C 8,9 C 4,9 km/h (1 Bft)
29/03/2007 01:00 8,6 C 60 % 1014,4 hPa 0,0 l/m 1,4 km/h (1 Bft) N 0,00 h 0,025 mm 0 W/m 1,4 C 8,6 C 3,2 km/h (1 Bft)
29/03/2007 02:00 9,0 C 59 % 1014,2 hPa 0,0 l/m 1,8 km/h (1 Bft) N 0,00 h 0,025 mm 0 W/m 1,5 C 8,9 C 4,0 km/h (1 Bft)
29/03/2007 03:00 8,8 C 60 % 1014,0 hPa 0,0 l/m 1,5 km/h (1 Bft) N-NO 0,00 h 0,025 mm 0 W/m 1,4 C 8,8 C 3,1 km/h (1 Bft)
29/03/2007 04:00 8,7 C 59 % 1014,0 hPa 0,0 l/m 1,9 km/h (1 Bft) N 0,00 h 0,025 mm 0 W/m 1,2 C 8,7 C 3,7 km/h (1 Bft)
29/03/2007 05:00 8,1 C 62 % 1014,0 hPa 0,0 l/m 3,4 km/h (1 Bft) N-NO 0,00 h 0,025 mm 0 W/m 1,1 C 7,9 C 5,6 km/h (1 Bft)
29/03/2007 06:00 7,9 C 62 % 1013,8 hPa 0,0 l/m 3,8 km/h (1 Bft) N-NO 0,00 h 0,025 mm 0 W/m 1,1 C 7,6 C 5,9 km/h (2 Bft)
29/03/2007 07:00 7,2 C 65 % 1013,6 hPa 0,0 l/m 5,4 km/h (1 Bft) O-NO 0,03 h 0,025 mm 19 W/m 1,0 C 6,4 C 8,6 km/h (2 Bft)
29/03/2007 08:00 7,5 C 65 % 1013,8 hPa 0,0 l/m 2,0 km/h (1 Bft) NO 0,07 h 0,025 mm 82 W/m 1,3 C 7,4 C 3,6 km/h (1 Bft)
29/03/2007 09:00 10,4 C 58 % 1014,3 hPa 0,0 l/m 1,0 km/h (0 Bft) NE 1,00 h 0,051 mm 283 W/m 2,5 C 10,4 C 2,1 km/h (1 Bft)
29/03/2007 10:00 12,6 C 50 % 1014,2 hPa 0,0 l/m 3,5 km/h (1 Bft) S 1,00 h 0,152 mm 459 W/m 2,4 C 12,6 C 6,0 km/h (2 Bft)
29/03/2007 11:00 13,8 C 50 % 1014,3 hPa 0,0 l/m 9,8 km/h (2 Bft) S 1,00 h 0,254 mm 591 W/m 3,5 C 13,8 C 14,2 km/h (3 Bft)
29/03/2007 12:00 14,4 C 50 % 1014,1 hPa 0,0 l/m 10,0 km/h (2 Bft) S 1,00 h 0,356 mm 642 W/m 4,2 C 14,4 C 15,4 km/h (3 Bft)
29/03/2007 13:00 15,3 C 50 % 1013,5 hPa 0,0 l/m 9,8 km/h (2 Bft) S 1,00 h 0,406 mm 750 W/m 4,8 C 15,3 C 15,3 km/h (3 Bft)
29/03/2007 14:00 15,3 C 50 % 1013,0 hPa 0,0 l/m 12,6 km/h (3 Bft) S 1,00 h 0,457 mm 721 W/m 4,9 C 15,3 C 19,1 km/h (3 Bft)
29/03/2007 15:00 15,4 C 51 % 1012,6 hPa 0,0 l/m 8,8 km/h (2 Bft) E 1,00 h 0,457 mm 633 W/m 5,5 C 15,4 C 15,1 km/h (3 Bft)
29/03/2007 16:00 15,0 C 55 % 1012,4 hPa 0,0 l/m 7,9 km/h (2 Bft) E 1,00 h 0,381 mm 493 W/m 6,1 C 15,0 C 13,7 km/h (3 Bft)
29/03/2007 17:00 13,6 C 60 % 1012,3 hPa 0,0 l/m 4,4 km/h (1 Bft) SE 0,48 h 0,305 mm 234 W/m 6,0 C 13,6 C 7,7 km/h (2 Bft)
29/03/2007 18:00 12,5 C 62 % 1012,4 hPa 0,0 l/m 2,0 km/h (1 Bft) S-SE 0,00 h 0,152 mm 62 W/m 5,5 C 12,5 C 3,7 km/h (1 Bft)
29/03/2007 19:00 11,8 C 63 % 1012,5 hPa 0,0 l/m 1,4 km/h (1 Bft) S 0,02 h 0,051 mm 25 W/m 4,9 C 11,8 C 2,2 km/h (1 Bft)
29/03/2007 20:00 11,2 C 64 % 1012,6 hPa 0,0 l/m 3,8 km/h (1 Bft) S-SO 0,00 h 0,025 mm 0 W/m 4,5 C 11,2 C 5,0 km/h (1 Bft)
29/03/2007 21:00 10,2 C 67 % 1013,0 hPa 0,0 l/m 5,6 km/h (1 Bft) O 0,00 h 0,025 mm 0 W/m 4,3 C 10,0 C 7,0 km/h (2 Bft)
29/03/2007 22:00 9,3 C 71 % 1012,9 hPa 0,0 l/m 2,9 km/h (1 Bft) O-NO 0,00 h 0,051 mm 0 W/m 4,3 C 9,2 C 4,9 km/h (1 Bft)
29/03/2007 23:00 8,9 C 72 % 1012,8 hPa 0,0 l/m 1,4 km/h (1 Bft) NO 0,00 h 0,025 mm 0 W/m 4,1 C 8,9 C 2,3 km/h (1 Bft)
30/03/2007 00:00 8,1 C 74 % 1012,4 hPa 0,0 l/m 2,2 km/h (1 Bft) O-NO 0,00 h 0,025 mm 0 W/m 3,8 C 8,0 C 3,7 km/h (1 Bft)
30/03/2007 01:00 7,9 C 74 % 1011,9 hPa 0,0 l/m 2,6 km/h (1 Bft) O-NO 0,00 h 0,025 mm 0 W/m 3,6 C 7,8 C 4,6 km/h (1 Bft)
30/03/2007 02:00 7,8 C 74 % 1011,5 hPa 0,0 l/m 3,9 km/h (1 Bft) O-NO 0,00 h 0,025 mm 0 W/m 3,5 C 7,6 C 6,5 km/h (2 Bft)
30/03/2007 03:00 7,9 C 73 % 1010,9 hPa 0,0 l/m 3,7 km/h (1 Bft) O-NO 0,00 h 0,025 mm 0 W/m 3,4 C 7,7 C 5,7 km/h (1 Bft)
30/03/2007 04:00 7,6 C 73 % 1010,3 hPa 0,0 l/m 3,3 km/h (1 Bft) O-NO 0,00 h 0,025 mm 0 W/m 3,1 C 7,4 C 5,2 km/h (1 Bft)
30/03/2007 05:00 7,4 C 74 % 1009,9 hPa 0,0 l/m 3,8 km/h (1 Bft) O-NO 0,00 h 0,025 mm 0 W/m 3,0 C 7,2 C 5,6 km/h (1 Bft)
30/03/2007 06:00 7,0 C 75 % 1009,7 hPa 0,0 l/m 4,7 km/h (1 Bft) O-NO 0,00 h 0,025 mm 0 W/m 2,8 C 6,4 C 6,7 km/h (2 Bft)
30/03/2007 07:00 7,4 C 72 % 1009,7 hPa 0,0 l/m 4,0 km/h (1 Bft) O-NO 0,00 h 0,025 mm 21 W/m 2,8 C 7,1 C 5,7 km/h (1 Bft)
30/03/2007 08:00 8,1 C 71 % 1009,9 hPa 0,0 l/m 1,7 km/h (1 Bft) O-NO 0,05 h 0,025 mm 74 W/m 3,0 C 8,1 C 2,6 km/h (1 Bft)
30/03/2007 09:00 11,0 C 64 % 1009,9 hPa 0,0 l/m 2,4 km/h (1 Bft) S 0,92 h 0,051 mm 326 W/m 4,4 C 11,0 C 4,2 km/h (1 Bft)
30/03/2007 10:00 11,9 C 61 % 1010,0 hPa 0,0 l/m 2,4 km/h (1 Bft) S-SO 0,20 h 0,178 mm 239 W/m 4,8 C 11,9 C 4,0 km/h (1 Bft)
30/03/2007 11:00 12,7 C 57 % 1009,9 hPa 0,0 l/m 1,9 km/h (1 Bft) S-SE 0,10 h 0,127 mm 276 W/m 4,5 C 12,7 C 3,9 km/h (1 Bft)
30/03/2007 12:00 13,2 C 56 % 1009,9 hPa 0,0 l/m 2,5 km/h (1 Bft) E 0,37 h 0,152 mm 337 W/m 4,7 C 13,2 C 4,4 km/h (1 Bft)
30/03/2007 13:00 14,4 C 56 % 1009,4 hPa 0,0 l/m 5,4 km/h (1 Bft) E 0,48 h 0,178 mm 447 W/m 5,9 C 14,4 C 8,7 km/h (2 Bft)
30/03/2007 14:00 15,2 C 59 % 1008,8 hPa 0,0 l/m 6,4 km/h (2 Bft) E 1,00 h 0,254 mm 674 W/m 7,1 C 15,2 C 12,1 km/h (2 Bft)
30/03/2007 15:00 13,9 C 59 % 1008,5 hPa 1,0 l/m 9,6 km/h (2 Bft) E 0,27 h 0,381 mm 283 W/m 6,1 C 13,9 C 14,4 km/h (3 Bft)
30/03/2007 16:00 9,6 C 85 % 1009,1 hPa 4,0 l/m 6,0 km/h (2 Bft) N-NO 0,43 h 0,178 mm 258 W/m 7,2 C 9,0 C 8,8 km/h (2 Bft)
30/03/2007 17:00 11,7 C 81 % 1008,2 hPa 0,0 l/m 1,8 km/h (1 Bft) N-NO 0,62 h 0,127 mm 338 W/m 8,5 C 11,7 C 4,3 km/h (1 Bft)
30/03/2007 18:00 11,4 C 76 % 1008,0 hPa 0,0 l/m 8,3 km/h (2 Bft) O-SO 0,28 h 0,152 mm 96 W/m 7,3 C 11,4 C 11,4 km/h (2 Bft)
30/03/2007 19:00 10,9 C 74 % 1008,3 hPa 0,0 l/m 4,7 km/h (1 Bft) O-NO 0,25 h 0,076 mm 35 W/m 6,3 C 10,9 C 6,9 km/h (2 Bft)
30/03/2007 20:00 10,1 C 74 % 1008,5 hPa 0,0 l/m 9,4 km/h (2 Bft) O-SO 0,00 h 0,025 mm 0 W/m 5,7 C 9,1 C 12,9 km/h (3 Bft)
30/03/2007 21:00 9,2 C 77 % 1009,0 hPa 0,0 l/m 17,1 km/h (3 Bft) O-SO 0,00 h 0,025 mm 0 W/m 5,4 C 6,7 C 22,2 km/h (4 Bft)
30/03/2007 22:00 8,7 C 73 % 1009,0 hPa 0,0 l/m 16,4 km/h (3 Bft) O-SO 0,00 h 0,051 mm 0 W/m 4,1 C 6,1 C 21,0 km/h (4 Bft)
30/03/2007 23:00 7,7 C 71 % 1008,9 hPa 0,0 l/m 15,7 km/h (3 Bft) O-SO 0,00 h 0,051 mm 0 W/m 2,8 C 5,1 C 20,0 km/h (4 Bft)
31/03/2007 00:00 6,9 C 69 % 1008,6 hPa 0,0 l/m 10,2 km/h (2 Bft) O-SO 0,00 h 0,051 mm 0 W/m 1,5 C 5,1 C 14,8 km/h (3 Bft)
31/03/2007 01:00 7,5 C 52 % 1008,7 hPa 0,0 l/m 13,3 km/h (3 Bft) O-NO 0,00 h 0,051 mm 0 W/m -1,9 C 5,1 C 18,2 km/h (3 Bft)
31/03/2007 02:00 7,4 C 46 % 1008,8 hPa 0,0 l/m 5,3 km/h (1 Bft) O 0,00 h 0,076 mm 0 W/m -3,6 C 6,6 C 8,2 km/h (2 Bft)
31/03/2007 03:00 5,1 C 58 % 1009,2 hPa 0,0 l/m 2,4 km/h (1 Bft) SO 0,00 h 0,051 mm 0 W/m -2,5 C 4,9 C 3,6 km/h (1 Bft)
31/03/2007 04:00 5,1 C 56 % 1009,4 hPa 0,0 l/m 4,5 km/h (1 Bft) N-NO 0,00 h 0,025 mm 0 W/m -2,9 C 4,4 C 6,5 km/h (2 Bft)
31/03/2007 05:00 4,9 C 54 % 1009,5 hPa 0,0 l/m 4,5 km/h (1 Bft) SO 0,00 h 0,051 mm 0 W/m -3,5 C 4,1 C 5,6 km/h (1 Bft)
31/03/2007 06:00 5,1 C 48 % 1010,0 hPa 0,0 l/m 7,6 km/h (2 Bft) O-NO 0,00 h 0,051 mm 0 W/m -5,0 C 3,4 C 10,6 km/h (2 Bft)
31/03/2007 07:00 4,9 C 48 % 1010,6 hPa 0,0 l/m 2,1 km/h (1 Bft) N-NO 0,38 h 0,051 mm 30 W/m -5,3 C 4,7 C 3,8 km/h (1 Bft)
31/03/2007 08:00 6,5 C 45 % 1011,3 hPa 0,0 l/m 1,8 km/h (1 Bft) NO 0,00 h 0,025 mm 74 W/m -4,7 C 6,4 C 3,4 km/h (1 Bft)
31/03/2007 09:00 8,7 C 48 % 1011,8 hPa 0,0 l/m 1,1 km/h (1 Bft) N 0,67 h 0,051 mm 226 W/m -1,7 C 8,7 C 2,6 km/h (1 Bft)
31/03/2007 10:00 10,5 C 54 % 1012,8 hPa 0,0 l/m 3,9 km/h (1 Bft) NE 0,37 h 0,102 mm 278 W/m 1,5 C 10,5 C 6,2 km/h (2 Bft)
31/03/2007 11:00 10,8 C 61 % 1013,5 hPa 0,0 l/m 3,8 km/h (1 Bft) NE 0,00 h 0,152 mm 228 W/m 3,6 C 10,8 C 6,0 km/h (2 Bft)
31/03/2007 12:00 11,8 C 62 % 1014,0 hPa 0,0 l/m 4,3 km/h (1 Bft) E 0,12 h 0,127 mm 349 W/m 4,7 C 11,8 C 7,0 km/h (2 Bft)
31/03/2007 13:00 12,3 C 50 % 1013,7 hPa 0,0 l/m 6,9 km/h (2 Bft) E-NE 0,00 h 0,203 mm 291 W/m 2,2 C 12,3 C 9,7 km/h (2 Bft)
31/03/2007 14:00 11,3 C 48 % 1013,6 hPa 0,0 l/m 9,8 km/h (2 Bft) E-NE 0,00 h 0,178 mm 124 W/m 0,6 C 11,3 C 15,4 km/h (3 Bft)
31/03/2007 15:00 9,8 C 56 % 1013,9 hPa 0,2 l/m 13,0 km/h (3 Bft) E-NE 0,00 h 0,127 mm 57 W/m 1,2 C 8,7 C 19,0 km/h (3 Bft)
31/03/2007 16:00 7,2 C 79 % 1014,9 hPa 1,8 l/m 12,5 km/h (3 Bft) NE 0,00 h 0,102 mm 45 W/m 3,7 C 4,9 C 18,5 km/h (3 Bft)
31/03/2007 17:00 6,1 C 89 % 1014,9 hPa 0,8 l/m 9,5 km/h (2 Bft) N 0,00 h 0,051 mm 33 W/m 4,5 C 4,2 C 15,8 km/h (3 Bft)
31/03/2007 18:00 5,9 C 91 % 1015,1 hPa 0,4 l/m 8,5 km/h (2 Bft) N-NE 0,00 h 0,025 mm 21 W/m 4,6 C 4,1 C 13,3 km/h (3 Bft)
31/03/2007 19:00 6,1 C 92 % 1015,4 hPa 0,4 l/m 4,4 km/h (1 Bft) N-NE 0,00 h 0,025 mm 9 W/m 5,0 C 5,6 C 6,5 km/h (2 Bft)
31/03/2007 20:00 6,3 C 93 % 1015,5 hPa 0,2 l/m 3,6 km/h (1 Bft) N 0,00 h 0,000 mm 0 W/m 5,3 C 6,0 C 6,0 km/h (2 Bft)
31/03/2007 21:00 6,7 C 93 % 1015,9 hPa 0,0 l/m 1,3 km/h (1 Bft) NE 0,00 h 0,000 mm 0 W/m 5,7 C 6,7 C 2,4 km/h (1 Bft)
31/03/2007 22:00 7,0 C 94 % 1016,4 hPa 0,0 l/m 3,0 km/h (1 Bft) N 0,00 h 0,000 mm 0 W/m 6,1 C 6,9 C 4,9 km/h (1 Bft)
31/03/2007 23:00 7,3 C 94 % 1016,6 hPa 0,4 l/m 2,4 km/h (1 Bft) N-NE 0,00 h 0,000 mm 0 W/m 6,4 C 7,1 C 4,1 km/h (1 Bft)
01/04/2007 00:00 7,4 C 94 % 1016,9 hPa 0,6 l/m 2,7 km/h (1 Bft) N 0,00 h 0,000 mm 0 W/m 6,5 C 7,3 C 5,2 km/h (1 Bft)
01/04/2007 01:00 7,6 C 94 % 1017,1 hPa 0,0 l/m 1,7 km/h (1 Bft) N 0,00 h 0,000 mm 0 W/m 6,7 C 7,6 C 3,4 km/h (1 Bft)
01/04/2007 02:00 7,5 C 94 % 1017,5 hPa 0,0 l/m 3,0 km/h (1 Bft) N 0,00 h 0,000 mm 0 W/m 6,6 C 7,3 C 4,9 km/h (1 Bft)
01/04/2007 03:00 7,6 C 94 % 1017,6 hPa 0,0 l/m 5,8 km/h (2 Bft) N-NE 0,00 h 0,000 mm 0 W/m 6,7 C 6,8 C 9,0 km/h (2 Bft)
01/04/2007 04:00 8,1 C 91 % 1017,7 hPa 0,0 l/m 5,2 km/h (1 Bft) N 0,00 h 0,000 mm 0 W/m 6,7 C 7,4 C 8,4 km/h (2 Bft)
01/04/2007 05:00 8,5 C 86 % 1017,9 hPa 0,0 l/m 6,6 km/h (2 Bft) N-NE 0,00 h 0,025 mm 0 W/m 6,3 C 7,6 C 10,3 km/h (2 Bft)
01/04/2007 06:00 9,1 C 79 % 1018,3 hPa 0,4 l/m 8,8 km/h (2 Bft) NE 0,00 h 0,025 mm 0 W/m 5,7 C 7,8 C 12,9 km/h (3 Bft)
01/04/2007 07:00 8,4 C 85 % 1018,8 hPa 0,6 l/m 7,0 km/h (2 Bft) N-NE 0,00 h 0,025 mm 12 W/m 6,1 C 7,5 C 10,4 km/h (2 Bft)
01/04/2007 08:00 8,0 C 90 % 1019,5 hPa 1,2 l/m 5,4 km/h (1 Bft) E-NE 0,00 h 0,025 mm 19 W/m 6,4 C 7,4 C 7,4 km/h (2 Bft)
01/04/2007 09:00 8,0 C 92 % 1019,9 hPa 0,8 l/m 4,4 km/h (1 Bft) N 0,00 h 0,025 mm 28 W/m 6,7 C 7,6 C 7,4 km/h (2 Bft)
01/04/2007 10:00 8,5 C 93 % 1020,6 hPa 0,4 l/m 4,5 km/h (1 Bft) NE 0,00 h 0,025 mm 61 W/m 7,5 C 8,2 C 6,7 km/h (2 Bft)
01/04/2007 11:00 9,7 C 93 % 1021,2 hPa 0,4 l/m 3,7 km/h (1 Bft) N 0,00 h 0,025 mm 139 W/m 8,6 C 9,6 C 5,9 km/h (2 Bft)
01/04/2007 12:00 11,0 C 90 % 1021,4 hPa 0,0 l/m 6,9 km/h (2 Bft) NE 0,00 h 0,076 mm 251 W/m 9,4 C 11,0 C 10,2 km/h (2 Bft)
01/04/2007 13:00 12,0 C 82 % 1021,6 hPa 0,0 l/m 8,3 km/h (2 Bft) NE 0,00 h 0,127 mm 235 W/m 9,0 C 12,0 C 12,2 km/h (2 Bft)
01/04/2007 14:00 14,3 C 73 % 1021,5 hPa 0,0 l/m 9,1 km/h (2 Bft) NE 0,63 h 0,127 mm 478 W/m 9,4 C 14,3 C 13,7 km/h (3 Bft)
01/04/2007 15:00 15,4 C 64 % 1021,4 hPa 0,0 l/m 12,2 km/h (2 Bft) NE 0,57 h 0,279 mm 464 W/m 8,7 C 15,4 C 17,7 km/h (3 Bft)
01/04/2007 16:00 15,0 C 66 % 1021,3 hPa 0,0 l/m 9,0 km/h (2 Bft) E-NE 0,08 h 0,305 mm 225 W/m 8,7 C 15,0 C 13,1 km/h (3 Bft)
01/04/2007 17:00 14,7 C 69 % 1021,2 hPa 0,0 l/m 10,0 km/h (2 Bft) E 0,00 h 0,152 mm 165 W/m 9,0 C 14,7 C 15,0 km/h (3 Bft)
01/04/2007 18:00 13,6 C 70 % 1021,3 hPa 0,0 l/m 13,0 km/h (3 Bft) E-NE 0,00 h 0,127 mm 82 W/m 8,2 C 13,6 C 17,8 km/h (3 Bft)
01/04/2007 19:00 13,0 C 71 % 1021,5 hPa 0,0 l/m 7,0 km/h (2 Bft) E-NE 0,02 h 0,102 mm 27 W/m 7,8 C 13,0 C 9,7 km/h (2 Bft)
01/04/2007 20:00 11,8 C 75 % 1021,9 hPa 0,0 l/m 6,8 km/h (2 Bft) E-NE 0,00 h 0,051 mm 0 W/m 7,5 C 11,8 C 9,1 km/h (2 Bft)
01/04/2007 21:00 11,2 C 78 % 1022,2 hPa 0,0 l/m 3,8 km/h (1 Bft) NE 0,00 h 0,025 mm 0 W/m 7,4 C 11,2 C 6,1 km/h (2 Bft)
01/04/2007 22:00 10,1 C 81 % 1022,6 hPa 0,0 l/m 3,3 km/h (1 Bft) N 0,00 h 0,025 mm 0 W/m 7,0 C 10,1 C 5,3 km/h (1 Bft)
01/04/2007 23:00 9,5 C 82 % 1022,7 hPa 0,0 l/m 4,0 km/h (1 Bft) N 0,00 h 0,025 mm 0 W/m 6,5 C 9,3 C 6,6 km/h (2 Bft)
Min-Date _ 31/03/07 28/03/07 30/03/07 - 26/03/07 - - - - 31/03/07 31/03/07 26/03/07
_ Min-Heure 05:24 14:18 18:00 - 06:04 - - - - 07:45 05:25 06:28
Minimum _ 4,2 C 41 % 1007,7 hPa - 0,0 km/h (0 Bft) - - - - -5,8 C 1,8 C 0,0 km/h (0 Bft)
Max-Date _ 01/04/07 31/03/07 01/04/07 30/03/07 30/03/07 - 26/03/07 28/03/07 01/04/07 01/04/07 01/04/07 31/03/07
_ Max-Heure 15:30 22:07 23:30 16:00 15:48 - 15:13 14:00 15:26 15:29 15:30 15:42
Maximum _ 16,5 C 94 % 1022,8 hPa 4,0 l/m 27,4 km/h
E (4 Bft)
- 0,03 h 0,483 mm 954 W/m 10,3 C 16,5 C 38,6 km/h
NE (5 Bft)
Moyenne _ 10,1 C 67 % 1014,1 hPa #13,6 l/m 5,8 km/h (2 Bft) O-NO #39:44 h #18,774 mm 296 W/m 4,0 C 9,8 C 9,0 km/h (2 Bft)
Roquefort les pins